sensor_id;sensor_type;location;lat;lon;timestamp;temperature;humidity
32536;DHT22;18974;50.838;4.636;2023-08-06T00:00:09;15.80;99.90
32536;DHT22;18974;50.838;4.636;2023-08-06T00:02:35;15.90;99.90
32536;DHT22;18974;50.838;4.636;2023-08-06T00:05:01;15.90;99.90
32536;DHT22;18974;50.838;4.636;2023-08-06T00:07:26;15.90;99.90
32536;DHT22;18974;50.838;4.636;2023-08-06T00:09:52;15.90;99.90
32536;DHT22;18974;50.838;4.636;2023-08-06T00:12:18;15.90;99.90
32536;DHT22;18974;50.838;4.636;2023-08-06T00:14:43;16.00;99.90
32536;DHT22;18974;50.838;4.636;2023-08-06T00:17:09;15.90;99.90
32536;DHT22;18974;50.838;4.636;2023-08-06T00:19:35;15.80;99.90
32536;DHT22;18974;50.838;4.636;2023-08-06T00:22:01;15.90;99.90
32536;DHT22;18974;50.838;4.636;2023-08-06T00:24:27;15.90;99.90
32536;DHT22;18974;50.838;4.636;2023-08-06T00:26:53;15.90;99.90
32536;DHT22;18974;50.838;4.636;2023-08-06T00:29:19;15.80;99.90
32536;DHT22;18974;50.838;4.636;2023-08-06T00:31:44;15.80;99.90
32536;DHT22;18974;50.838;4.636;2023-08-06T00:34:10;15.80;99.90
32536;DHT22;18974;50.838;4.636;2023-08-06T00:36:36;15.90;99.90
32536;DHT22;18974;50.838;4.636;2023-08-06T00:39:01;16.00;99.90
32536;DHT22;18974;50.838;4.636;2023-08-06T00:41:28;16.00;99.90
32536;DHT22;18974;50.838;4.636;2023-08-06T00:43:53;16.10;99.90
32536;DHT22;18974;50.838;4.636;2023-08-06T00:46:19;16.00;99.90
32536;DHT22;18974;50.838;4.636;2023-08-06T00:48:46;16.00;99.90
32536;DHT22;18974;50.838;4.636;2023-08-06T00:51:12;16.00;99.90
32536;DHT22;18974;50.838;4.636;2023-08-06T00:53:39;16.00;99.90
32536;DHT22;18974;50.838;4.636;2023-08-06T00:56:05;16.10;99.90
32536;DHT22;18974;50.838;4.636;2023-08-06T00:58:32;16.00;99.90
32536;DHT22;18974;50.838;4.636;2023-08-06T01:00:57;16.10;99.90
32536;DHT22;18974;50.838;4.636;2023-08-06T01:03:23;16.00;99.90
32536;DHT22;18974;50.838;4.636;2023-08-06T01:05:49;16.10;99.90
32536;DHT22;18974;50.838;4.636;2023-08-06T01:08:36;16.10;99.90
32536;DHT22;18974;50.838;4.636;2023-08-06T01:14:06;16.10;99.90
32536;DHT22;18974;50.838;4.636;2023-08-06T01:16:32;16.20;99.90
32536;DHT22;18974;50.838;4.636;2023-08-06T01:18:58;16.20;99.90
32536;DHT22;18974;50.838;4.636;2023-08-06T01:21:24;16.20;99.90
32536;DHT22;18974;50.838;4.636;2023-08-06T01:23:50;16.20;99.90
32536;DHT22;18974;50.838;4.636;2023-08-06T01:26:37;16.30;99.90
32536;DHT22;18974;50.838;4.636;2023-08-06T01:29:28;16.30;99.90
32536;DHT22;18974;50.838;4.636;2023-08-06T01:31:56;16.30;99.90
32536;DHT22;18974;50.838;4.636;2023-08-06T01:34:28;16.30;99.90
32536;DHT22;18974;50.838;4.636;2023-08-06T01:36:56;16.30;99.90
32536;DHT22;18974;50.838;4.636;2023-08-06T01:39:22;16.30;99.90
32536;DHT22;18974;50.838;4.636;2023-08-06T01:41:48;16.30;99.90
32536;DHT22;18974;50.838;4.636;2023-08-06T01:44:14;16.30;99.90
32536;DHT22;18974;50.838;4.636;2023-08-06T01:46:40;16.20;99.90
32536;DHT22;18974;50.838;4.636;2023-08-06T01:49:06;16.30;99.90
32536;DHT22;18974;50.838;4.636;2023-08-06T01:51:32;16.40;99.90
32536;DHT22;18974;50.838;4.636;2023-08-06T01:53:57;16.30;99.90
32536;DHT22;18974;50.838;4.636;2023-08-06T01:56:23;16.30;99.90
32536;DHT22;18974;50.838;4.636;2023-08-06T01:58:48;16.30;99.90
32536;DHT22;18974;50.838;4.636;2023-08-06T02:01:14;16.30;99.90
32536;DHT22;18974;50.838;4.636;2023-08-06T02:03:40;16.30;99.90
32536;DHT22;18974;50.838;4.636;2023-08-06T02:06:05;16.30;99.90
32536;DHT22;18974;50.838;4.636;2023-08-06T02:08:31;16.30;99.90
32536;DHT22;18974;50.838;4.636;2023-08-06T02:10:57;16.30;99.90
32536;DHT22;18974;50.838;4.636;2023-08-06T02:13:23;16.20;99.90
32536;DHT22;18974;50.838;4.636;2023-08-06T02:15:49;16.30;99.90
32536;DHT22;18974;50.838;4.636;2023-08-06T02:18:15;16.30;99.90
32536;DHT22;18974;50.838;4.636;2023-08-06T02:20:42;16.30;99.90
32536;DHT22;18974;50.838;4.636;2023-08-06T02:23:08;16.30;99.90
32536;DHT22;18974;50.838;4.636;2023-08-06T02:25:34;16.30;99.90
32536;DHT22;18974;50.838;4.636;2023-08-06T02:28:00;16.30;99.90
32536;DHT22;18974;50.838;4.636;2023-08-06T02:30:25;16.30;99.90
32536;DHT22;18974;50.838;4.636;2023-08-06T02:32:51;16.30;99.90
32536;DHT22;18974;50.838;4.636;2023-08-06T02:35:17;16.30;99.90
32536;DHT22;18974;50.838;4.636;2023-08-06T02:37:43;16.30;99.90
32536;DHT22;18974;50.838;4.636;2023-08-06T02:40:08;16.30;99.90
32536;DHT22;18974;50.838;4.636;2023-08-06T02:42:34;16.40;99.90
32536;DHT22;18974;50.838;4.636;2023-08-06T02:45:00;16.40;99.90
32536;DHT22;18974;50.838;4.636;2023-08-06T02:47:26;16.40;99.90
32536;DHT22;18974;50.838;4.636;2023-08-06T02:49:51;16.40;99.90
32536;DHT22;18974;50.838;4.636;2023-08-06T02:52:17;16.30;99.90
32536;DHT22;18974;50.838;4.636;2023-08-06T02:54:43;16.30;99.90
32536;DHT22;18974;50.838;4.636;2023-08-06T02:57:08;16.40;99.90
32536;DHT22;18974;50.838;4.636;2023-08-06T02:59:34;16.30;99.90
32536;DHT22;18974;50.838;4.636;2023-08-06T03:01:59;16.30;99.90
32536;DHT22;18974;50.838;4.636;2023-08-06T03:04:25;16.30;99.90
32536;DHT22;18974;50.838;4.636;2023-08-06T03:06:51;16.20;99.90
32536;DHT22;18974;50.838;4.636;2023-08-06T03:09:17;16.20;99.90
32536;DHT22;18974;50.838;4.636;2023-08-06T03:11:43;16.10;99.90
32536;DHT22;18974;50.838;4.636;2023-08-06T03:14:08;16.10;99.90
32536;DHT22;18974;50.838;4.636;2023-08-06T03:16:34;16.00;99.90
32536;DHT22;18974;50.838;4.636;2023-08-06T03:19:00;16.00;99.90
32536;DHT22;18974;50.838;4.636;2023-08-06T03:21:26;16.00;99.90
32536;DHT22;18974;50.838;4.636;2023-08-06T03:23:52;16.00;99.90
32536;DHT22;18974;50.838;4.636;2023-08-06T03:26:17;16.00;99.90
32536;DHT22;18974;50.838;4.636;2023-08-06T03:28:43;16.00;99.90
32536;DHT22;18974;50.838;4.636;2023-08-06T03:31:09;16.00;99.90
32536;DHT22;18974;50.838;4.636;2023-08-06T03:33:34;16.10;99.90
32536;DHT22;18974;50.838;4.636;2023-08-06T03:36:00;16.10;99.90
32536;DHT22;18974;50.838;4.636;2023-08-06T03:38:26;16.10;99.90
32536;DHT22;18974;50.838;4.636;2023-08-06T03:40:51;16.10;99.90
32536;DHT22;18974;50.838;4.636;2023-08-06T03:43:17;16.20;99.90
32536;DHT22;18974;50.838;4.636;2023-08-06T03:45:43;16.20;99.90
32536;DHT22;18974;50.838;4.636;2023-08-06T03:48:09;16.20;99.90
32536;DHT22;18974;50.838;4.636;2023-08-06T03:50:35;16.30;99.90
32536;DHT22;18974;50.838;4.636;2023-08-06T03:53:01;16.30;99.90
32536;DHT22;18974;50.838;4.636;2023-08-06T03:55:26;16.30;99.90
32536;DHT22;18974;50.838;4.636;2023-08-06T03:57:52;16.40;99.90
32536;DHT22;18974;50.838;4.636;2023-08-06T04:00:18;16.40;99.90
32536;DHT22;18974;50.838;4.636;2023-08-06T04:02:44;16.30;99.90
32536;DHT22;18974;50.838;4.636;2023-08-06T04:05:09;16.40;99.90
32536;DHT22;18974;50.838;4.636;2023-08-06T04:07:35;16.40;99.90
32536;DHT22;18974;50.838;4.636;2023-08-06T04:10:02;16.40;99.90
32536;DHT22;18974;50.838;4.636;2023-08-06T04:12:29;16.40;99.90
32536;DHT22;18974;50.838;4.636;2023-08-06T04:14:56;16.40;99.90
32536;DHT22;18974;50.838;4.636;2023-08-06T04:17:22;16.40;99.90
32536;DHT22;18974;50.838;4.636;2023-08-06T04:19:53;16.40;99.90
32536;DHT22;18974;50.838;4.636;2023-08-06T04:22:20;16.50;99.90
32536;DHT22;18974;50.838;4.636;2023-08-06T04:24:47;16.50;99.90
32536;DHT22;18974;50.838;4.636;2023-08-06T04:27:13;16.40;99.90
32536;DHT22;18974;50.838;4.636;2023-08-06T04:29:39;16.40;99.90
32536;DHT22;18974;50.838;4.636;2023-08-06T04:32:07;16.40;99.90
32536;DHT22;18974;50.838;4.636;2023-08-06T04:34:33;16.40;99.90
32536;DHT22;18974;50.838;4.636;2023-08-06T04:36:59;16.40;99.90
32536;DHT22;18974;50.838;4.636;2023-08-06T04:39:25;16.30;99.90
32536;DHT22;18974;50.838;4.636;2023-08-06T04:41:50;16.10;99.90
32536;DHT22;18974;50.838;4.636;2023-08-06T04:44:16;16.00;99.90
32536;DHT22;18974;50.838;4.636;2023-08-06T04:46:42;16.00;99.90
32536;DHT22;18974;50.838;4.636;2023-08-06T04:49:08;15.90;99.90
32536;DHT22;18974;50.838;4.636;2023-08-06T04:51:33;15.80;99.90
32536;DHT22;18974;50.838;4.636;2023-08-06T04:53:59;15.80;99.90
32536;DHT22;18974;50.838;4.636;2023-08-06T04:56:25;15.70;99.90
32536;DHT22;18974;50.838;4.636;2023-08-06T04:58:50;15.70;99.90
32536;DHT22;18974;50.838;4.636;2023-08-06T05:01:16;15.70;99.90
32536;DHT22;18974;50.838;4.636;2023-08-06T05:03:42;15.60;99.90
32536;DHT22;18974;50.838;4.636;2023-08-06T05:06:08;15.50;99.90
32536;DHT22;18974;50.838;4.636;2023-08-06T05:08:33;15.50;99.90
32536;DHT22;18974;50.838;4.636;2023-08-06T05:10:59;15.30;99.90
32536;DHT22;18974;50.838;4.636;2023-08-06T05:13:25;15.30;99.90
32536;DHT22;18974;50.838;4.636;2023-08-06T05:15:53;15.30;99.90
32536;DHT22;18974;50.838;4.636;2023-08-06T05:18:18;15.30;99.90
32536;DHT22;18974;50.838;4.636;2023-08-06T05:20:44;15.30;99.90
32536;DHT22;18974;50.838;4.636;2023-08-06T05:23:10;15.20;99.90
32536;DHT22;18974;50.838;4.636;2023-08-06T05:25:37;15.10;99.90
32536;DHT22;18974;50.838;4.636;2023-08-06T05:28:03;15.10;99.90
32536;DHT22;18974;50.838;4.636;2023-08-06T05:30:29;15.10;99.90
32536;DHT22;18974;50.838;4.636;2023-08-06T05:32:54;15.20;99.90
32536;DHT22;18974;50.838;4.636;2023-08-06T05:35:21;15.10;99.90
32536;DHT22;18974;50.838;4.636;2023-08-06T05:37:47;15.20;99.90
32536;DHT22;18974;50.838;4.636;2023-08-06T05:40:13;15.10;99.90
32536;DHT22;18974;50.838;4.636;2023-08-06T05:42:39;15.10;99.90
32536;DHT22;18974;50.838;4.636;2023-08-06T05:45:05;15.20;99.90
32536;DHT22;18974;50.838;4.636;2023-08-06T05:47:31;15.10;99.90
32536;DHT22;18974;50.838;4.636;2023-08-06T05:49:57;15.20;99.90
32536;DHT22;18974;50.838;4.636;2023-08-06T05:52:22;15.20;99.90
32536;DHT22;18974;50.838;4.636;2023-08-06T05:54:48;15.20;99.90
32536;DHT22;18974;50.838;4.636;2023-08-06T05:57:14;15.20;99.90
32536;DHT22;18974;50.838;4.636;2023-08-06T05:59:40;15.10;99.90
32536;DHT22;18974;50.838;4.636;2023-08-06T06:02:06;15.10;99.90
32536;DHT22;18974;50.838;4.636;2023-08-06T06:04:32;15.20;99.90
32536;DHT22;18974;50.838;4.636;2023-08-06T06:06:57;15.20;99.90
32536;DHT22;18974;50.838;4.636;2023-08-06T06:09:23;15.10;99.90
32536;DHT22;18974;50.838;4.636;2023-08-06T06:11:49;15.30;99.90
32536;DHT22;18974;50.838;4.636;2023-08-06T06:14:16;15.30;99.90
32536;DHT22;18974;50.838;4.636;2023-08-06T06:16:42;15.30;99.90
32536;DHT22;18974;50.838;4.636;2023-08-06T06:19:08;15.30;99.90
32536;DHT22;18974;50.838;4.636;2023-08-06T06:21:33;15.20;99.90
32536;DHT22;18974;50.838;4.636;2023-08-06T06:23:59;15.20;99.90
32536;DHT22;18974;50.838;4.636;2023-08-06T06:26:25;15.30;99.90
32536;DHT22;18974;50.838;4.636;2023-08-06T06:28:50;15.30;99.90
32536;DHT22;18974;50.838;4.636;2023-08-06T06:31:16;15.40;99.90
32536;DHT22;18974;50.838;4.636;2023-08-06T06:33:42;15.40;99.90
32536;DHT22;18974;50.838;4.636;2023-08-06T06:36:07;15.40;99.90
32536;DHT22;18974;50.838;4.636;2023-08-06T06:38:34;15.50;99.90
32536;DHT22;18974;50.838;4.636;2023-08-06T06:41:00;15.50;99.90
32536;DHT22;18974;50.838;4.636;2023-08-06T06:43:26;15.60;99.90
32536;DHT22;18974;50.838;4.636;2023-08-06T06:45:59;15.70;99.90
32536;DHT22;18974;50.838;4.636;2023-08-06T06:48:29;15.70;99.90
32536;DHT22;18974;50.838;4.636;2023-08-06T06:50:55;15.70;99.90
32536;DHT22;18974;50.838;4.636;2023-08-06T06:53:22;15.70;99.90
32536;DHT22;18974;50.838;4.636;2023-08-06T06:56:02;15.80;99.90
32536;DHT22;18974;50.838;4.636;2023-08-06T06:58:28;15.80;99.90
32536;DHT22;18974;50.838;4.636;2023-08-06T07:00:53;15.80;99.90
32536;DHT22;18974;50.838;4.636;2023-08-06T07:03:20;15.90;99.90
32536;DHT22;18974;50.838;4.636;2023-08-06T07:05:45;16.00;99.90
32536;DHT22;18974;50.838;4.636;2023-08-06T07:08:11;16.00;99.90
32536;DHT22;18974;50.838;4.636;2023-08-06T07:10:37;16.00;99.90
32536;DHT22;18974;50.838;4.636;2023-08-06T07:13:03;16.10;99.90
32536;DHT22;18974;50.838;4.636;2023-08-06T07:15:29;16.10;99.90
32536;DHT22;18974;50.838;4.636;2023-08-06T07:17:54;16.20;99.90
32536;DHT22;18974;50.838;4.636;2023-08-06T07:20:20;16.20;99.90
32536;DHT22;18974;50.838;4.636;2023-08-06T07:22:46;16.30;99.90
32536;DHT22;18974;50.838;4.636;2023-08-06T07:25:12;16.30;99.90
32536;DHT22;18974;50.838;4.636;2023-08-06T07:27:38;16.30;99.90
32536;DHT22;18974;50.838;4.636;2023-08-06T07:30:04;16.40;99.90
32536;DHT22;18974;50.838;4.636;2023-08-06T07:32:31;16.40;99.90
32536;DHT22;18974;50.838;4.636;2023-08-06T07:34:57;16.50;99.90
32536;DHT22;18974;50.838;4.636;2023-08-06T07:37:29;16.50;99.90
32536;DHT22;18974;50.838;4.636;2023-08-06T07:39:55;16.50;99.90
32536;DHT22;18974;50.838;4.636;2023-08-06T07:42:21;16.60;99.90
32536;DHT22;18974;50.838;4.636;2023-08-06T07:44:54;16.60;99.90
32536;DHT22;18974;50.838;4.636;2023-08-06T07:47:21;16.70;99.90
32536;DHT22;18974;50.838;4.636;2023-08-06T07:49:47;16.80;99.90
32536;DHT22;18974;50.838;4.636;2023-08-06T07:52:12;16.80;99.90
32536;DHT22;18974;50.838;4.636;2023-08-06T07:54:38;16.60;99.90
32536;DHT22;18974;50.838;4.636;2023-08-06T07:57:04;16.50;99.90
32536;DHT22;18974;50.838;4.636;2023-08-06T07:59:30;16.40;99.90
32536;DHT22;18974;50.838;4.636;2023-08-06T08:01:56;16.40;99.90
32536;DHT22;18974;50.838;4.636;2023-08-06T08:04:21;16.50;99.90
32536;DHT22;18974;50.838;4.636;2023-08-06T08:06:47;16.40;99.90
32536;DHT22;18974;50.838;4.636;2023-08-06T08:09:13;16.60;99.90
32536;DHT22;18974;50.838;4.636;2023-08-06T08:11:40;16.60;99.90
32536;DHT22;18974;50.838;4.636;2023-08-06T08:14:06;16.60;99.90
32536;DHT22;18974;50.838;4.636;2023-08-06T08:16:32;16.70;99.90
32536;DHT22;18974;50.838;4.636;2023-08-06T08:18:58;16.70;99.90
32536;DHT22;18974;50.838;4.636;2023-08-06T08:21:24;16.80;99.90
32536;DHT22;18974;50.838;4.636;2023-08-06T08:23:50;16.90;99.90
32536;DHT22;18974;50.838;4.636;2023-08-06T08:26:16;16.90;99.90
32536;DHT22;18974;50.838;4.636;2023-08-06T08:28:42;17.00;99.90
32536;DHT22;18974;50.838;4.636;2023-08-06T08:31:11;17.10;99.90
32536;DHT22;18974;50.838;4.636;2023-08-06T08:33:40;17.30;99.90
32536;DHT22;18974;50.838;4.636;2023-08-06T08:36:06;17.40;99.90
32536;DHT22;18974;50.838;4.636;2023-08-06T08:38:32;17.40;99.90
32536;DHT22;18974;50.838;4.636;2023-08-06T08:40:57;17.40;99.90
32536;DHT22;18974;50.838;4.636;2023-08-06T08:43:23;17.40;99.90
32536;DHT22;18974;50.838;4.636;2023-08-06T08:45:53;17.30;99.90
32536;DHT22;18974;50.838;4.636;2023-08-06T08:48:24;17.10;99.90
32536;DHT22;18974;50.838;4.636;2023-08-06T08:50:51;17.10;99.90
32536;DHT22;18974;50.838;4.636;2023-08-06T08:53:17;17.20;99.90
32536;DHT22;18974;50.838;4.636;2023-08-06T08:55:46;17.30;99.90
32536;DHT22;18974;50.838;4.636;2023-08-06T08:58:12;17.60;99.90
32536;DHT22;18974;50.838;4.636;2023-08-06T09:00:41;17.80;99.90
32536;DHT22;18974;50.838;4.636;2023-08-06T09:03:07;18.00;99.90
32536;DHT22;18974;50.838;4.636;2023-08-06T09:05:33;18.00;99.90
32536;DHT22;18974;50.838;4.636;2023-08-06T09:08:04;18.10;99.90
32536;DHT22;18974;50.838;4.636;2023-08-06T09:10:30;18.10;99.90
32536;DHT22;18974;50.838;4.636;2023-08-06T09:12:58;18.00;99.90
32536;DHT22;18974;50.838;4.636;2023-08-06T09:15:25;18.20;99.90
32536;DHT22;18974;50.838;4.636;2023-08-06T09:17:52;18.30;99.90
32536;DHT22;18974;50.838;4.636;2023-08-06T09:20:18;18.30;99.90
32536;DHT22;18974;50.838;4.636;2023-08-06T09:22:44;18.20;99.90
32536;DHT22;18974;50.838;4.636;2023-08-06T09:25:11;18.30;99.90
32536;DHT22;18974;50.838;4.636;2023-08-06T09:27:39;18.30;99.90
32536;DHT22;18974;50.838;4.636;2023-08-06T09:30:06;18.30;99.90
32536;DHT22;18974;50.838;4.636;2023-08-06T09:32:48;18.20;99.90
32536;DHT22;18974;50.838;4.636;2023-08-06T09:35:18;18.00;99.90
32536;DHT22;18974;50.838;4.636;2023-08-06T09:37:44;17.80;99.90
32536;DHT22;18974;50.838;4.636;2023-08-06T09:40:39;17.60;99.90
32536;DHT22;18974;50.838;4.636;2023-08-06T09:43:05;17.50;99.90
32536;DHT22;18974;50.838;4.636;2023-08-06T09:45:33;17.20;99.90
32536;DHT22;18974;50.838;4.636;2023-08-06T09:47:59;17.10;99.90
32536;DHT22;18974;50.838;4.636;2023-08-06T09:50:30;17.10;99.90
32536;DHT22;18974;50.838;4.636;2023-08-06T09:53:03;17.00;99.90
32536;DHT22;18974;50.838;4.636;2023-08-06T09:55:29;16.80;99.90
32536;DHT22;18974;50.838;4.636;2023-08-06T09:57:55;16.70;99.90
32536;DHT22;18974;50.838;4.636;2023-08-06T10:00:22;16.70;99.90
32536;DHT22;18974;50.838;4.636;2023-08-06T10:02:53;16.50;99.90
32536;DHT22;18974;50.838;4.636;2023-08-06T10:05:22;16.50;99.90
32536;DHT22;18974;50.838;4.636;2023-08-06T10:07:49;16.40;99.90
32536;DHT22;18974;50.838;4.636;2023-08-06T10:10:16;16.30;99.90
32536;DHT22;18974;50.838;4.636;2023-08-06T10:12:47;16.40;99.90
32536;DHT22;18974;50.838;4.636;2023-08-06T10:15:16;16.40;99.90
32536;DHT22;18974;50.838;4.636;2023-08-06T10:17:44;16.40;99.90
32536;DHT22;18974;50.838;4.636;2023-08-06T10:20:11;16.20;99.90
32536;DHT22;18974;50.838;4.636;2023-08-06T10:22:37;16.20;99.90
32536;DHT22;18974;50.838;4.636;2023-08-06T10:25:07;16.30;99.90
32536;DHT22;18974;50.838;4.636;2023-08-06T10:27:35;16.30;99.90
32536;DHT22;18974;50.838;4.636;2023-08-06T10:30:30;16.30;99.90
32536;DHT22;18974;50.838;4.636;2023-08-06T10:33:01;16.30;99.90
32536;DHT22;18974;50.838;4.636;2023-08-06T10:38:17;16.30;99.90
32536;DHT22;18974;50.838;4.636;2023-08-06T10:43:26;16.30;99.90
32536;DHT22;18974;50.838;4.636;2023-08-06T10:45:52;16.30;99.90
32536;DHT22;18974;50.838;4.636;2023-08-06T10:48:41;16.30;99.90
32536;DHT22;18974;50.838;4.636;2023-08-06T10:51:16;16.30;99.90
32536;DHT22;18974;50.838;4.636;2023-08-06T10:53:45;16.40;99.90
32536;DHT22;18974;50.838;4.636;2023-08-06T10:58:38;16.70;99.90
32536;DHT22;18974;50.838;4.636;2023-08-06T11:01:04;16.90;99.90
32536;DHT22;18974;50.838;4.636;2023-08-06T11:03:30;16.90;99.90
32536;DHT22;18974;50.838;4.636;2023-08-06T11:05:57;17.00;99.90
32536;DHT22;18974;50.838;4.636;2023-08-06T11:08:26;17.00;99.90
32536;DHT22;18974;50.838;4.636;2023-08-06T11:10:52;17.00;99.90
32536;DHT22;18974;50.838;4.636;2023-08-06T11:13:18;17.00;99.90
32536;DHT22;18974;50.838;4.636;2023-08-06T11:15:46;17.00;99.90
32536;DHT22;18974;50.838;4.636;2023-08-06T11:18:12;16.90;99.90
32536;DHT22;18974;50.838;4.636;2023-08-06T11:20:40;16.90;99.90
32536;DHT22;18974;50.838;4.636;2023-08-06T11:23:06;17.00;99.90
32536;DHT22;18974;50.838;4.636;2023-08-06T11:25:44;17.00;99.90
32536;DHT22;18974;50.838;4.636;2023-08-06T11:28:11;17.10;99.90
32536;DHT22;18974;50.838;4.636;2023-08-06T11:30:38;17.30;99.90
32536;DHT22;18974;50.838;4.636;2023-08-06T11:33:03;17.50;99.90
32536;DHT22;18974;50.838;4.636;2023-08-06T11:35:35;17.60;99.90
32536;DHT22;18974;50.838;4.636;2023-08-06T11:38:00;17.80;99.90
32536;DHT22;18974;50.838;4.636;2023-08-06T11:40:26;17.80;99.90
32536;DHT22;18974;50.838;4.636;2023-08-06T11:42:52;17.70;99.90
32536;DHT22;18974;50.838;4.636;2023-08-06T11:45:22;17.60;99.90
32536;DHT22;18974;50.838;4.636;2023-08-06T11:47:52;17.60;99.90
32536;DHT22;18974;50.838;4.636;2023-08-06T11:50:27;17.70;99.90
32536;DHT22;18974;50.838;4.636;2023-08-06T11:53:02;17.70;99.90
32536;DHT22;18974;50.838;4.636;2023-08-06T11:55:28;17.50;99.90
32536;DHT22;18974;50.838;4.636;2023-08-06T11:57:55;17.30;99.90
32536;DHT22;18974;50.838;4.636;2023-08-06T12:00:24;17.20;99.90
32536;DHT22;18974;50.838;4.636;2023-08-06T12:02:50;17.10;99.90
32536;DHT22;18974;50.838;4.636;2023-08-06T12:07:49;16.80;99.90
32536;DHT22;18974;50.838;4.636;2023-08-06T12:10:16;16.90;99.90
32536;DHT22;18974;50.838;4.636;2023-08-06T12:12:42;17.00;99.90
32536;DHT22;18974;50.838;4.636;2023-08-06T12:15:09;17.10;99.90
32536;DHT22;18974;50.838;4.636;2023-08-06T12:17:35;17.30;99.90
32536;DHT22;18974;50.838;4.636;2023-08-06T12:20:02;17.50;99.90
32536;DHT22;18974;50.838;4.636;2023-08-06T12:22:30;17.80;99.90
32536;DHT22;18974;50.838;4.636;2023-08-06T12:25:03;18.00;99.90
32536;DHT22;18974;50.838;4.636;2023-08-06T12:27:32;18.00;99.90
32536;DHT22;18974;50.838;4.636;2023-08-06T12:29:57;18.10;99.90
32536;DHT22;18974;50.838;4.636;2023-08-06T12:32:23;18.40;99.90
32536;DHT22;18974;50.838;4.636;2023-08-06T12:34:49;18.60;99.90
32536;DHT22;18974;50.838;4.636;2023-08-06T12:37:14;18.70;99.90
32536;DHT22;18974;50.838;4.636;2023-08-06T12:39:40;18.90;99.90
32536;DHT22;18974;50.838;4.636;2023-08-06T12:42:06;18.90;99.90
32536;DHT22;18974;50.838;4.636;2023-08-06T12:44:32;18.90;99.90
32536;DHT22;18974;50.838;4.636;2023-08-06T12:46:58;18.90;99.90
32536;DHT22;18974;50.838;4.636;2023-08-06T12:49:25;18.70;99.90
32536;DHT22;18974;50.838;4.636;2023-08-06T12:51:52;18.40;99.90
32536;DHT22;18974;50.838;4.636;2023-08-06T12:54:19;18.40;99.90
32536;DHT22;18974;50.838;4.636;2023-08-06T12:56:46;18.20;99.90
32536;DHT22;18974;50.838;4.636;2023-08-06T12:59:13;18.10;99.90
32536;DHT22;18974;50.838;4.636;2023-08-06T13:01:39;18.10;99.90
32536;DHT22;18974;50.838;4.636;2023-08-06T13:04:04;18.10;99.90
32536;DHT22;18974;50.838;4.636;2023-08-06T13:06:30;18.00;99.90
32536;DHT22;18974;50.838;4.636;2023-08-06T13:09:01;17.80;99.90
32536;DHT22;18974;50.838;4.636;2023-08-06T13:11:27;17.60;99.90
32536;DHT22;18974;50.838;4.636;2023-08-06T13:13:52;17.60;99.90
32536;DHT22;18974;50.838;4.636;2023-08-06T13:16:18;17.50;99.90
32536;DHT22;18974;50.838;4.636;2023-08-06T13:18:44;17.60;99.90
32536;DHT22;18974;50.838;4.636;2023-08-06T13:21:09;17.50;99.90
32536;DHT22;18974;50.838;4.636;2023-08-06T13:23:35;17.30;99.90
32536;DHT22;18974;50.838;4.636;2023-08-06T13:26:01;17.10;99.90
32536;DHT22;18974;50.838;4.636;2023-08-06T13:28:26;17.10;99.90
32536;DHT22;18974;50.838;4.636;2023-08-06T13:30:52;16.80;99.90
32536;DHT22;18974;50.838;4.636;2023-08-06T13:33:18;16.70;99.90
32536;DHT22;18974;50.838;4.636;2023-08-06T13:35:43;16.70;99.90
32536;DHT22;18974;50.838;4.636;2023-08-06T13:38:09;16.60;99.90
32536;DHT22;18974;50.838;4.636;2023-08-06T13:40:35;16.60;99.90
32536;DHT22;18974;50.838;4.636;2023-08-06T13:43:01;16.70;99.90
32536;DHT22;18974;50.838;4.636;2023-08-06T13:45:26;16.90;99.90
32536;DHT22;18974;50.838;4.636;2023-08-06T13:47:52;17.10;99.90
32536;DHT22;18974;50.838;4.636;2023-08-06T13:50:18;17.20;99.90
32536;DHT22;18974;50.838;4.636;2023-08-06T13:52:44;17.20;99.90
32536;DHT22;18974;50.838;4.636;2023-08-06T13:55:10;17.00;99.90
32536;DHT22;18974;50.838;4.636;2023-08-06T13:57:36;16.70;99.90
32536;DHT22;18974;50.838;4.636;2023-08-06T14:00:02;16.60;99.90
32536;DHT22;18974;50.838;4.636;2023-08-06T14:02:28;16.50;99.90
32536;DHT22;18974;50.838;4.636;2023-08-06T14:04:54;16.50;99.90
32536;DHT22;18974;50.838;4.636;2023-08-06T14:07:20;16.40;99.90
32536;DHT22;18974;50.838;4.636;2023-08-06T14:09:46;16.30;99.90
32536;DHT22;18974;50.838;4.636;2023-08-06T14:12:13;16.20;99.90
32536;DHT22;18974;50.838;4.636;2023-08-06T14:14:39;16.00;99.90
32536;DHT22;18974;50.838;4.636;2023-08-06T14:17:05;16.00;99.90
32536;DHT22;18974;50.838;4.636;2023-08-06T14:19:31;16.00;99.90
32536;DHT22;18974;50.838;4.636;2023-08-06T14:21:56;16.10;99.90
32536;DHT22;18974;50.838;4.636;2023-08-06T14:24:22;16.10;99.90
32536;DHT22;18974;50.838;4.636;2023-08-06T14:26:48;16.20;99.90
32536;DHT22;18974;50.838;4.636;2023-08-06T14:29:14;16.10;99.90
32536;DHT22;18974;50.838;4.636;2023-08-06T14:31:42;16.20;99.90
32536;DHT22;18974;50.838;4.636;2023-08-06T14:34:09;16.20;99.90
32536;DHT22;18974;50.838;4.636;2023-08-06T14:36:35;16.10;99.90
32536;DHT22;18974;50.838;4.636;2023-08-06T14:39:00;16.20;99.90
32536;DHT22;18974;50.838;4.636;2023-08-06T14:41:26;16.30;99.90
32536;DHT22;18974;50.838;4.636;2023-08-06T14:43:52;16.30;99.90
32536;DHT22;18974;50.838;4.636;2023-08-06T14:46:19;16.40;99.90
32536;DHT22;18974;50.838;4.636;2023-08-06T14:48:44;16.40;99.90
32536;DHT22;18974;50.838;4.636;2023-08-06T14:51:10;16.60;99.90
32536;DHT22;18974;50.838;4.636;2023-08-06T14:53:36;16.60;99.90
32536;DHT22;18974;50.838;4.636;2023-08-06T14:56:02;16.60;99.90
32536;DHT22;18974;50.838;4.636;2023-08-06T14:58:28;16.50;99.90
32536;DHT22;18974;50.838;4.636;2023-08-06T15:00:53;16.40;99.90
32536;DHT22;18974;50.838;4.636;2023-08-06T15:03:19;16.50;99.90
32536;DHT22;18974;50.838;4.636;2023-08-06T15:05:47;16.40;99.90
32536;DHT22;18974;50.838;4.636;2023-08-06T15:08:13;16.40;99.90
32536;DHT22;18974;50.838;4.636;2023-08-06T15:10:39;16.40;99.90
32536;DHT22;18974;50.838;4.636;2023-08-06T15:13:05;16.40;99.90
32536;DHT22;18974;50.838;4.636;2023-08-06T15:15:31;16.40;99.90
32536;DHT22;18974;50.838;4.636;2023-08-06T15:17:57;16.30;99.90
32536;DHT22;18974;50.838;4.636;2023-08-06T15:20:23;16.40;99.90
32536;DHT22;18974;50.838;4.636;2023-08-06T15:22:49;16.30;99.90
32536;DHT22;18974;50.838;4.636;2023-08-06T15:25:15;16.30;99.90
32536;DHT22;18974;50.838;4.636;2023-08-06T15:27:41;16.10;99.90
32536;DHT22;18974;50.838;4.636;2023-08-06T15:30:07;16.20;99.90
32536;DHT22;18974;50.838;4.636;2023-08-06T15:32:33;16.30;99.90
32536;DHT22;18974;50.838;4.636;2023-08-06T15:34:59;16.40;99.90
32536;DHT22;18974;50.838;4.636;2023-08-06T15:37:25;16.40;99.90
32536;DHT22;18974;50.838;4.636;2023-08-06T15:39:52;16.50;99.90